sensor_id;sensor_type;location;lat;lon;timestamp;pressure;altitude;pressure_sealevel;temperature
4421;BMP180;11824;51.178;13.546;2024-01-30T00:00:03;101700.00;;;1.20
4421;BMP180;11824;51.178;13.546;2024-01-30T00:02:33;101705.00;;;1.10
4421;BMP180;11824;51.178;13.546;2024-01-30T00:05:01;101700.00;;;1.10
4421;BMP180;11824;51.178;13.546;2024-01-30T00:07:31;101699.00;;;1.10
4421;BMP180;11824;51.178;13.546;2024-01-30T00:10:00;101690.00;;;1.10
4421;BMP180;11824;51.178;13.546;2024-01-30T00:12:29;101702.00;;;1.00
4421;BMP180;11824;51.178;13.546;2024-01-30T00:15:00;101704.00;;;1.00
4421;BMP180;11824;51.178;13.546;2024-01-30T00:17:30;101698.00;;;1.00
4421;BMP180;11824;51.178;13.546;2024-01-30T00:19:59;101696.00;;;1.00
4421;BMP180;11824;51.178;13.546;2024-01-30T00:22:28;101699.00;;;1.00
4421;BMP180;11824;51.178;13.546;2024-01-30T00:24:57;101702.00;;;0.90
4421;BMP180;11824;51.178;13.546;2024-01-30T00:27:26;101691.00;;;0.90
4421;BMP180;11824;51.178;13.546;2024-01-30T00:29:55;101693.00;;;0.90
4421;BMP180;11824;51.178;13.546;2024-01-30T00:32:26;101691.00;;;0.90
4421;BMP180;11824;51.178;13.546;2024-01-30T00:34:54;101690.00;;;0.90
4421;BMP180;11824;51.178;13.546;2024-01-30T00:37:23;101684.00;;;0.90
4421;BMP180;11824;51.178;13.546;2024-01-30T00:39:52;101683.00;;;0.90
4421;BMP180;11824;51.178;13.546;2024-01-30T00:42:21;101691.00;;;0.90
4421;BMP180;11824;51.178;13.546;2024-01-30T00:44:51;101677.00;;;0.90
4421;BMP180;11824;51.178;13.546;2024-01-30T00:47:20;101672.00;;;0.90
4421;BMP180;11824;51.178;13.546;2024-01-30T00:49:50;101676.00;;;0.90
4421;BMP180;11824;51.178;13.546;2024-01-30T00:52:19;101683.00;;;0.90
4421;BMP180;11824;51.178;13.546;2024-01-30T00:54:48;101688.00;;;0.90
4421;BMP180;11824;51.178;13.546;2024-01-30T00:57:16;101683.00;;;0.90
4421;BMP180;11824;51.178;13.546;2024-01-30T00:59:45;101682.00;;;0.90
4421;BMP180;11824;51.178;13.546;2024-01-30T01:02:14;101682.00;;;0.90
4421;BMP180;11824;51.178;13.546;2024-01-30T01:04:44;101687.00;;;0.90
4421;BMP180;11824;51.178;13.546;2024-01-30T01:07:15;101685.00;;;0.90
4421;BMP180;11824;51.178;13.546;2024-01-30T01:09:43;101691.00;;;0.90
4421;BMP180;11824;51.178;13.546;2024-01-30T01:12:12;101684.00;;;0.90
4421;BMP180;11824;51.178;13.546;2024-01-30T01:14:41;101692.00;;;0.90
4421;BMP180;11824;51.178;13.546;2024-01-30T01:17:10;101686.00;;;0.90
4421;BMP180;11824;51.178;13.546;2024-01-30T01:19:39;101684.00;;;0.90
4421;BMP180;11824;51.178;13.546;2024-01-30T01:22:08;101682.00;;;0.90
4421;BMP180;11824;51.178;13.546;2024-01-30T01:24:38;101685.00;;;0.90
4421;BMP180;11824;51.178;13.546;2024-01-30T01:27:07;101687.00;;;0.90
4421;BMP180;11824;51.178;13.546;2024-01-30T01:29:35;101685.00;;;0.90
4421;BMP180;11824;51.178;13.546;2024-01-30T01:32:04;101682.00;;;0.90
4421;BMP180;11824;51.178;13.546;2024-01-30T01:34:33;101685.00;;;0.90
4421;BMP180;11824;51.178;13.546;2024-01-30T01:37:02;101682.00;;;0.90
4421;BMP180;11824;51.178;13.546;2024-01-30T01:39:31;101682.00;;;0.90
4421;BMP180;11824;51.178;13.546;2024-01-30T01:42:01;101684.00;;;0.90
4421;BMP180;11824;51.178;13.546;2024-01-30T01:44:30;101682.00;;;0.90
4421;BMP180;11824;51.178;13.546;2024-01-30T01:46:59;101677.00;;;0.90
4421;BMP180;11824;51.178;13.546;2024-01-30T01:49:28;101679.00;;;0.90
4421;BMP180;11824;51.178;13.546;2024-01-30T01:51:58;101676.00;;;0.90
4421;BMP180;11824;51.178;13.546;2024-01-30T01:54:29;101682.00;;;0.80
4421;BMP180;11824;51.178;13.546;2024-01-30T01:56:58;101677.00;;;0.80
4421;BMP180;11824;51.178;13.546;2024-01-30T01:59:28;101672.00;;;0.80
4421;BMP180;11824;51.178;13.546;2024-01-30T02:01:57;101666.00;;;0.80
4421;BMP180;11824;51.178;13.546;2024-01-30T02:04:26;101673.00;;;0.80
4421;BMP180;11824;51.178;13.546;2024-01-30T02:06:55;101664.00;;;0.80
4421;BMP180;11824;51.178;13.546;2024-01-30T02:09:24;101662.00;;;0.80
4421;BMP180;11824;51.178;13.546;2024-01-30T02:11:53;101673.00;;;0.80
4421;BMP180;11824;51.178;13.546;2024-01-30T02:14:22;101660.00;;;0.80
4421;BMP180;11824;51.178;13.546;2024-01-30T02:16:54;101661.00;;;0.80
4421;BMP180;11824;51.178;13.546;2024-01-30T02:19:23;101660.00;;;0.80
4421;BMP180;11824;51.178;13.546;2024-01-30T02:21:54;101654.00;;;0.80
4421;BMP180;11824;51.178;13.546;2024-01-30T02:24:22;101658.00;;;0.80
4421;BMP180;11824;51.178;13.546;2024-01-30T02:26:51;101662.00;;;0.80
4421;BMP180;11824;51.178;13.546;2024-01-30T02:29:20;101657.00;;;0.80
4421;BMP180;11824;51.178;13.546;2024-01-30T02:31:49;101656.00;;;0.80
4421;BMP180;11824;51.178;13.546;2024-01-30T02:34:19;101657.00;;;0.80
4421;BMP180;11824;51.178;13.546;2024-01-30T02:36:48;101656.00;;;0.80
4421;BMP180;11824;51.178;13.546;2024-01-30T02:39:19;101655.00;;;0.80
4421;BMP180;11824;51.178;13.546;2024-01-30T02:41:47;101652.00;;;0.80
4421;BMP180;11824;51.178;13.546;2024-01-30T02:44:16;101644.00;;;0.80
4421;BMP180;11824;51.178;13.546;2024-01-30T02:46:45;101647.00;;;0.80
4421;BMP180;11824;51.178;13.546;2024-01-30T02:49:14;101646.00;;;0.80
4421;BMP180;11824;51.178;13.546;2024-01-30T02:51:43;101652.00;;;0.80
4421;BMP180;11824;51.178;13.546;2024-01-30T02:54:12;101655.00;;;0.80
4421;BMP180;11824;51.178;13.546;2024-01-30T02:56:42;101652.00;;;0.90
4421;BMP180;11824;51.178;13.546;2024-01-30T02:59:10;101648.00;;;0.90
4421;BMP180;11824;51.178;13.546;2024-01-30T03:01:45;101655.00;;;0.90
4421;BMP180;11824;51.178;13.546;2024-01-30T03:04:15;101653.00;;;0.90
4421;BMP180;11824;51.178;13.546;2024-01-30T03:06:45;101647.00;;;0.90
4421;BMP180;11824;51.178;13.546;2024-01-30T03:09:17;101645.00;;;0.90
4421;BMP180;11824;51.178;13.546;2024-01-30T03:11:47;101651.00;;;0.90
4421;BMP180;11824;51.178;13.546;2024-01-30T03:14:16;101649.00;;;0.90
4421;BMP180;11824;51.178;13.546;2024-01-30T03:16:45;101642.00;;;0.90
4421;BMP180;11824;51.178;13.546;2024-01-30T03:19:14;101640.00;;;0.90
4421;BMP180;11824;51.178;13.546;2024-01-30T03:21:43;101637.00;;;0.90
4421;BMP180;11824;51.178;13.546;2024-01-30T03:24:12;101647.00;;;0.90
4421;BMP180;11824;51.178;13.546;2024-01-30T03:26:41;101634.00;;;0.90
4421;BMP180;11824;51.178;13.546;2024-01-30T03:29:11;101642.00;;;0.90
4421;BMP180;11824;51.178;13.546;2024-01-30T03:31:41;101640.00;;;0.90
4421;BMP180;11824;51.178;13.546;2024-01-30T03:34:09;101640.00;;;0.90
4421;BMP180;11824;51.178;13.546;2024-01-30T03:36:38;101639.00;;;0.90
4421;BMP180;11824;51.178;13.546;2024-01-30T03:39:07;101639.00;;;0.90
4421;BMP180;11824;51.178;13.546;2024-01-30T03:41:36;101639.00;;;0.90
4421;BMP180;11824;51.178;13.546;2024-01-30T03:44:06;101642.00;;;0.90
4421;BMP180;11824;51.178;13.546;2024-01-30T03:46:37;101630.00;;;0.90
4421;BMP180;11824;51.178;13.546;2024-01-30T03:49:05;101640.00;;;0.90
4421;BMP180;11824;51.178;13.546;2024-01-30T03:51:34;101631.00;;;0.90
4421;BMP180;11824;51.178;13.546;2024-01-30T03:54:03;101636.00;;;0.90
4421;BMP180;11824;51.178;13.546;2024-01-30T03:56:32;101644.00;;;0.80
4421;BMP180;11824;51.178;13.546;2024-01-30T03:59:01;101641.00;;;0.80
4421;BMP180;11824;51.178;13.546;2024-01-30T04:01:30;101633.00;;;0.80
4421;BMP180;11824;51.178;13.546;2024-01-30T04:04:00;101645.00;;;0.80
4421;BMP180;11824;51.178;13.546;2024-01-30T04:06:29;101628.00;;;0.80
4421;BMP180;11824;51.178;13.546;2024-01-30T04:08:58;101626.00;;;0.80
4421;BMP180;11824;51.178;13.546;2024-01-30T04:11:26;101625.00;;;0.80
4421;BMP180;11824;51.178;13.546;2024-01-30T04:13:55;101620.00;;;0.70
4421;BMP180;11824;51.178;13.546;2024-01-30T04:16:24;101623.00;;;0.70
4421;BMP180;11824;51.178;13.546;2024-01-30T04:18:53;101625.00;;;0.70
4421;BMP180;11824;51.178;13.546;2024-01-30T04:21:23;101633.00;;;0.70
4421;BMP180;11824;51.178;13.546;2024-01-30T04:23:52;101630.00;;;0.70
4421;BMP180;11824;51.178;13.546;2024-01-30T04:26:21;101633.00;;;0.70
4421;BMP180;11824;51.178;13.546;2024-01-30T04:28:51;101631.00;;;0.70
4421;BMP180;11824;51.178;13.546;2024-01-30T04:31:19;101624.00;;;0.70
4421;BMP180;11824;51.178;13.546;2024-01-30T04:33:48;101628.00;;;0.70
4421;BMP180;11824;51.178;13.546;2024-01-30T04:36:17;101621.00;;;0.70
4421;BMP180;11824;51.178;13.546;2024-01-30T04:38:47;101623.00;;;0.70
4421;BMP180;11824;51.178;13.546;2024-01-30T04:41:16;101624.00;;;0.70
4421;BMP180;11824;51.178;13.546;2024-01-30T04:43:45;101627.00;;;0.70
4421;BMP180;11824;51.178;13.546;2024-01-30T04:46:14;101630.00;;;0.70
4421;BMP180;11824;51.178;13.546;2024-01-30T04:48:42;101621.00;;;0.70
4421;BMP180;11824;51.178;13.546;2024-01-30T04:51:11;101619.00;;;0.60
4421;BMP180;11824;51.178;13.546;2024-01-30T04:53:40;101614.00;;;0.60
4421;BMP180;11824;51.178;13.546;2024-01-30T04:56:10;101612.00;;;0.60
4421;BMP180;11824;51.178;13.546;2024-01-30T04:58:39;101612.00;;;0.60
4421;BMP180;11824;51.178;13.546;2024-01-30T05:01:08;101606.00;;;0.60
4421;BMP180;11824;51.178;13.546;2024-01-30T05:03:37;101615.00;;;0.60
4421;BMP180;11824;51.178;13.546;2024-01-30T05:06:06;101612.00;;;0.60
4421;BMP180;11824;51.178;13.546;2024-01-30T05:08:35;101606.00;;;0.70
4421;BMP180;11824;51.178;13.546;2024-01-30T05:11:05;101612.00;;;0.70
4421;BMP180;11824;51.178;13.546;2024-01-30T05:13:36;101612.00;;;0.70
4421;BMP180;11824;51.178;13.546;2024-01-30T05:16:05;101597.00;;;0.70
4421;BMP180;11824;51.178;13.546;2024-01-30T05:18:34;101606.00;;;0.70
4421;BMP180;11824;51.178;13.546;2024-01-30T05:21:03;101598.00;;;0.70
4421;BMP180;11824;51.178;13.546;2024-01-30T05:23:32;101606.00;;;0.70
4421;BMP180;11824;51.178;13.546;2024-01-30T05:26:01;101598.00;;;0.70
4421;BMP180;11824;51.178;13.546;2024-01-30T05:28:30;101606.00;;;0.70
4421;BMP180;11824;51.178;13.546;2024-01-30T05:31:00;101595.00;;;0.70
4421;BMP180;11824;51.178;13.546;2024-01-30T05:33:29;101600.00;;;0.70
4421;BMP180;11824;51.178;13.546;2024-01-30T05:35:58;101607.00;;;0.70
4421;BMP180;11824;51.178;13.546;2024-01-30T05:38:26;101615.00;;;0.70
4421;BMP180;11824;51.178;13.546;2024-01-30T05:40:57;101605.00;;;0.70
4421;BMP180;11824;51.178;13.546;2024-01-30T05:43:26;101607.00;;;0.70
4421;BMP180;11824;51.178;13.546;2024-01-30T05:45:55;101605.00;;;0.70
4421;BMP180;11824;51.178;13.546;2024-01-30T05:48:25;101607.00;;;0.70
4421;BMP180;11824;51.178;13.546;2024-01-30T05:50:54;101599.00;;;0.70
4421;BMP180;11824;51.178;13.546;2024-01-30T05:53:24;101612.00;;;0.70
4421;BMP180;11824;51.178;13.546;2024-01-30T05:55:52;101612.00;;;0.70
4421;BMP180;11824;51.178;13.546;2024-01-30T05:58:21;101603.00;;;0.80
4421;BMP180;11824;51.178;13.546;2024-01-30T06:00:50;101603.00;;;0.80
4421;BMP180;11824;51.178;13.546;2024-01-30T06:03:19;101614.00;;;0.80
4421;BMP180;11824;51.178;13.546;2024-01-30T06:05:49;101608.00;;;0.80
4421;BMP180;11824;51.178;13.546;2024-01-30T06:08:18;101605.00;;;0.80
4421;BMP180;11824;51.178;13.546;2024-01-30T06:10:47;101609.00;;;0.80
4421;BMP180;11824;51.178;13.546;2024-01-30T06:13:16;101609.00;;;0.80
4421;BMP180;11824;51.178;13.546;2024-01-30T06:15:45;101607.00;;;0.80
4421;BMP180;11824;51.178;13.546;2024-01-30T06:18:14;101607.00;;;0.80
4421;BMP180;11824;51.178;13.546;2024-01-30T06:20:43;101613.00;;;0.80
4421;BMP180;11824;51.178;13.546;2024-01-30T06:23:13;101598.00;;;0.80
4421;BMP180;11824;51.178;13.546;2024-01-30T06:25:42;101606.00;;;0.80
4421;BMP180;11824;51.178;13.546;2024-01-30T06:28:11;101607.00;;;0.80
4421;BMP180;11824;51.178;13.546;2024-01-30T06:30:39;101604.00;;;0.80
4421;BMP180;11824;51.178;13.546;2024-01-30T06:33:10;101617.00;;;0.80
4421;BMP180;11824;51.178;13.546;2024-01-30T06:35:41;101602.00;;;0.80
4421;BMP180;11824;51.178;13.546;2024-01-30T06:38:12;101606.00;;;0.80
4421;BMP180;11824;51.178;13.546;2024-01-30T06:40:43;101613.00;;;0.80
4421;BMP180;11824;51.178;13.546;2024-01-30T06:43:11;101603.00;;;0.80
4421;BMP180;11824;51.178;13.546;2024-01-30T06:45:40;101602.00;;;0.90
4421;BMP180;11824;51.178;13.546;2024-01-30T06:48:10;101590.00;;;0.90
4421;BMP180;11824;51.178;13.546;2024-01-30T06:50:38;101603.00;;;0.90
4421;BMP180;11824;51.178;13.546;2024-01-30T06:53:07;101606.00;;;0.90
4421;BMP180;11824;51.178;13.546;2024-01-30T06:55:37;101604.00;;;0.90
4421;BMP180;11824;51.178;13.546;2024-01-30T06:58:06;101606.00;;;1.00
4421;BMP180;11824;51.178;13.546;2024-01-30T07:00:35;101614.00;;;1.00
4421;BMP180;11824;51.178;13.546;2024-01-30T07:03:04;101602.00;;;1.00
4421;BMP180;11824;51.178;13.546;2024-01-30T07:05:33;101593.00;;;1.10
4421;BMP180;11824;51.178;13.546;2024-01-30T07:08:02;101613.00;;;1.10
4421;BMP180;11824;51.178;13.546;2024-01-30T07:10:31;101607.00;;;1.10
4421;BMP180;11824;51.178;13.546;2024-01-30T07:13:02;101605.00;;;1.20
4421;BMP180;11824;51.178;13.546;2024-01-30T07:15:31;101612.00;;;1.30
4421;BMP180;11824;51.178;13.546;2024-01-30T07:18:00;101612.00;;;1.40
4421;BMP180;11824;51.178;13.546;2024-01-30T07:20:29;101607.00;;;1.40
4421;BMP180;11824;51.178;13.546;2024-01-30T07:22:59;101602.00;;;1.50
4421;BMP180;11824;51.178;13.546;2024-01-30T07:25:28;101601.00;;;1.60
4421;BMP180;11824;51.178;13.546;2024-01-30T07:27:57;101598.00;;;1.70
4421;BMP180;11824;51.178;13.546;2024-01-30T07:30:27;101604.00;;;1.80
4421;BMP180;11824;51.178;13.546;2024-01-30T07:32:56;101607.00;;;1.90
4421;BMP180;11824;51.178;13.546;2024-01-30T07:35:25;101620.00;;;2.00
4421;BMP180;11824;51.178;13.546;2024-01-30T07:37:54;101609.00;;;2.00
4421;BMP180;11824;51.178;13.546;2024-01-30T07:40:24;101607.00;;;2.10
4421;BMP180;11824;51.178;13.546;2024-01-30T07:42:54;101607.00;;;2.20
4421;BMP180;11824;51.178;13.546;2024-01-30T07:45:22;101609.00;;;2.30
4421;BMP180;11824;51.178;13.546;2024-01-30T07:47:54;101612.00;;;2.40
4421;BMP180;11824;51.178;13.546;2024-01-30T07:50:22;101608.00;;;2.50
4421;BMP180;11824;51.178;13.546;2024-01-30T07:52:51;101615.00;;;2.60
4421;BMP180;11824;51.178;13.546;2024-01-30T07:55:22;101613.00;;;2.70
4421;BMP180;11824;51.178;13.546;2024-01-30T07:57:52;101620.00;;;2.80
4421;BMP180;11824;51.178;13.546;2024-01-30T08:00:21;101620.00;;;2.90
4421;BMP180;11824;51.178;13.546;2024-01-30T08:02:50;101617.00;;;3.00
4421;BMP180;11824;51.178;13.546;2024-01-30T08:05:23;101621.00;;;3.10
4421;BMP180;11824;51.178;13.546;2024-01-30T08:07:52;101619.00;;;3.10
4421;BMP180;11824;51.178;13.546;2024-01-30T08:10:21;101624.00;;;3.20
4421;BMP180;11824;51.178;13.546;2024-01-30T08:12:50;101627.00;;;3.30
4421;BMP180;11824;51.178;13.546;2024-01-30T08:15:19;101618.00;;;3.40
4421;BMP180;11824;51.178;13.546;2024-01-30T08:17:47;101620.00;;;3.50
4421;BMP180;11824;51.178;13.546;2024-01-30T08:20:16;101638.00;;;3.60
4421;BMP180;11824;51.178;13.546;2024-01-30T08:22:47;101641.00;;;3.70
4421;BMP180;11824;51.178;13.546;2024-01-30T08:25:15;101639.00;;;3.80
4421;BMP180;11824;51.178;13.546;2024-01-30T08:27:44;101641.00;;;3.80
4421;BMP180;11824;51.178;13.546;2024-01-30T08:30:14;101651.00;;;3.90
4421;BMP180;11824;51.178;13.546;2024-01-30T08:32:43;101649.00;;;3.90
4421;BMP180;11824;51.178;13.546;2024-01-30T08:35:11;101646.00;;;4.00
4421;BMP180;11824;51.178;13.546;2024-01-30T08:37:42;101648.00;;;4.10
4421;BMP180;11824;51.178;13.546;2024-01-30T08:40:12;101653.00;;;4.10
4421;BMP180;11824;51.178;13.546;2024-01-30T08:42:41;101653.00;;;4.20
4421;BMP180;11824;51.178;13.546;2024-01-30T08:45:10;101643.00;;;4.20
4421;BMP180;11824;51.178;13.546;2024-01-30T08:47:40;101644.00;;;4.30
4421;BMP180;11824;51.178;13.546;2024-01-30T08:50:09;101637.00;;;4.30
4421;BMP180;11824;51.178;13.546;2024-01-30T08:52:38;101637.00;;;4.40
4421;BMP180;11824;51.178;13.546;2024-01-30T08:55:08;101639.00;;;4.40
4421;BMP180;11824;51.178;13.546;2024-01-30T08:57:38;101627.00;;;4.50
4421;BMP180;11824;51.178;13.546;2024-01-30T09:00:08;101624.00;;;4.60
4421;BMP180;11824;51.178;13.546;2024-01-30T09:02:37;101622.00;;;4.60
4421;BMP180;11824;51.178;13.546;2024-01-30T09:05:09;101617.00;;;4.70
4421;BMP180;11824;51.178;13.546;2024-01-30T09:07:38;101614.00;;;4.80
4421;BMP180;11824;51.178;13.546;2024-01-30T09:10:07;101616.00;;;4.80
4421;BMP180;11824;51.178;13.546;2024-01-30T09:12:41;101620.00;;;4.90
4421;BMP180;11824;51.178;13.546;2024-01-30T09:15:11;101624.00;;;5.00
4421;BMP180;11824;51.178;13.546;2024-01-30T09:17:38;101626.00;;;5.00
4421;BMP180;11824;51.178;13.546;2024-01-30T09:20:08;101626.00;;;5.10
4421;BMP180;11824;51.178;13.546;2024-01-30T09:22:38;101626.00;;;5.10
4421;BMP180;11824;51.178;13.546;2024-01-30T09:25:07;101618.00;;;5.20
4421;BMP180;11824;51.178;13.546;2024-01-30T09:27:36;101617.00;;;5.20
4421;BMP180;11824;51.178;13.546;2024-01-30T09:30:07;101621.00;;;5.30
4421;BMP180;11824;51.178;13.546;2024-01-30T09:32:36;101618.00;;;5.40
4421;BMP180;11824;51.178;13.546;2024-01-30T09:35:05;101626.00;;;5.50
4421;BMP180;11824;51.178;13.546;2024-01-30T09:37:34;101622.00;;;5.50
4421;BMP180;11824;51.178;13.546;2024-01-30T09:40:04;101617.00;;;5.60
4421;BMP180;11824;51.178;13.546;2024-01-30T09:42:35;101613.00;;;5.70
4421;BMP180;11824;51.178;13.546;2024-01-30T09:45:06;101617.00;;;5.80
4421;BMP180;11824;51.178;13.546;2024-01-30T09:47:40;101623.00;;;5.90
4421;BMP180;11824;51.178;13.546;2024-01-30T09:50:11;101624.00;;;6.00
4421;BMP180;11824;51.178;13.546;2024-01-30T09:52:44;101629.00;;;6.10
4421;BMP180;11824;51.178;13.546;2024-01-30T09:55:13;101625.00;;;6.10
4421;BMP180;11824;51.178;13.546;2024-01-30T09:57:42;101623.00;;;6.20
4421;BMP180;11824;51.178;13.546;2024-01-30T10:00:14;101613.00;;;6.30
4421;BMP180;11824;51.178;13.546;2024-01-30T10:02:43;101617.00;;;6.40
4421;BMP180;11824;51.178;13.546;2024-01-30T10:05:16;101620.00;;;6.50
4421;BMP180;11824;51.178;13.546;2024-01-30T10:07:54;101614.00;;;6.60
4421;BMP180;11824;51.178;13.546;2024-01-30T10:10:23;101625.00;;;6.70
4421;BMP180;11824;51.178;13.546;2024-01-30T10:12:52;101609.00;;;6.80
4421;BMP180;11824;51.178;13.546;2024-01-30T10:15:23;101609.00;;;6.90
4421;BMP180;11824;51.178;13.546;2024-01-30T10:17:52;101602.00;;;7.00
4421;BMP180;11824;51.178;13.546;2024-01-30T10:20:21;101606.00;;;7.10
4421;BMP180;11824;51.178;13.546;2024-01-30T10:22:50;101606.00;;;7.10
4421;BMP180;11824;51.178;13.546;2024-01-30T10:25:22;101591.00;;;7.20
4421;BMP180;11824;51.178;13.546;2024-01-30T10:27:53;101596.00;;;7.30
4421;BMP180;11824;51.178;13.546;2024-01-30T10:30:24;101599.00;;;7.40
4421;BMP180;11824;51.178;13.546;2024-01-30T10:32:53;101600.00;;;7.50
4421;BMP180;11824;51.178;13.546;2024-01-30T10:35:22;101607.00;;;7.50
4421;BMP180;11824;51.178;13.546;2024-01-30T10:37:51;101586.00;;;7.60
4421;BMP180;11824;51.178;13.546;2024-01-30T10:40:22;101588.00;;;7.70
4421;BMP180;11824;51.178;13.546;2024-01-30T10:42:56;101575.00;;;7.70
4421;BMP180;11824;51.178;13.546;2024-01-30T10:45:29;101577.00;;;7.80
4421;BMP180;11824;51.178;13.546;2024-01-30T10:48:00;101575.00;;;7.80
4421;BMP180;11824;51.178;13.546;2024-01-30T10:50:31;101578.00;;;7.90
4421;BMP180;11824;51.178;13.546;2024-01-30T10:53:04;101573.00;;;7.90
4421;BMP180;11824;51.178;13.546;2024-01-30T10:55:34;101563.00;;;8.00
4421;BMP180;11824;51.178;13.546;2024-01-30T10:58:03;101560.00;;;8.00
4421;BMP180;11824;51.178;13.546;2024-01-30T11:00:34;101560.00;;;8.00
4421;BMP180;11824;51.178;13.546;2024-01-30T11:03:03;101553.00;;;8.10
4421;BMP180;11824;51.178;13.546;2024-01-30T11:05:34;101553.00;;;8.10
4421;BMP180;11824;51.178;13.546;2024-01-30T11:08:11;101552.00;;;8.10
4421;BMP180;11824;51.178;13.546;2024-01-30T11:10:47;101558.00;;;8.10
4421;BMP180;11824;51.178;13.546;2024-01-30T11:13:18;101548.00;;;8.10
4421;BMP180;11824;51.178;13.546;2024-01-30T11:15:49;101543.00;;;8.10
4421;BMP180;11824;51.178;13.546;2024-01-30T11:18:24;101534.00;;;8.10
4421;BMP180;11824;51.178;13.546;2024-01-30T11:20:56;101540.00;;;8.10
4421;BMP180;11824;51.178;13.546;2024-01-30T11:23:26;101534.00;;;8.10
4421;BMP180;11824;51.178;13.546;2024-01-30T11:25:57;101534.00;;;8.00
4421;BMP180;11824;51.178;13.546;2024-01-30T11:28:32;101537.00;;;8.00
4421;BMP180;11824;51.178;13.546;2024-01-30T11:31:07;101540.00;;;8.10
4421;BMP180;11824;51.178;13.546;2024-01-30T11:33:36;101530.00;;;8.00
4421;BMP180;11824;51.178;13.546;2024-01-30T11:36:06;101543.00;;;8.00
4421;BMP180;11824;51.178;13.546;2024-01-30T11:38:35;101540.00;;;8.10
4421;BMP180;11824;51.178;13.546;2024-01-30T11:41:05;101540.00;;;8.10
4421;BMP180;11824;51.178;13.546;2024-01-30T11:43:35;101539.00;;;8.10
4421;BMP180;11824;51.178;13.546;2024-01-30T11:46:07;101541.00;;;8.10
4421;BMP180;11824;51.178;13.546;2024-01-30T11:48:37;101530.00;;;8.20
4421;BMP180;11824;51.178;13.546;2024-01-30T11:51:06;101526.00;;;8.20
4421;BMP180;11824;51.178;13.546;2024-01-30T11:53:35;101530.00;;;8.20
4421;BMP180;11824;51.178;13.546;2024-01-30T11:56:06;101521.00;;;8.20
4421;BMP180;11824;51.178;13.546;2024-01-30T11:58:36;101531.00;;;8.30
4421;BMP180;11824;51.178;13.546;2024-01-30T12:01:06;101535.00;;;8.30
4421;BMP180;11824;51.178;13.546;2024-01-30T12:03:35;101526.00;;;8.30
4421;BMP180;11824;51.178;13.546;2024-01-30T12:06:04;101522.00;;;8.30
4421;BMP180;11824;51.178;13.546;2024-01-30T12:08:34;101527.00;;;8.40
4421;BMP180;11824;51.178;13.546;2024-01-30T12:11:03;101520.00;;;8.40
4421;BMP180;11824;51.178;13.546;2024-01-30T12:13:35;101531.00;;;8.40
4421;BMP180;11824;51.178;13.546;2024-01-30T12:16:04;101524.00;;;8.40
4421;BMP180;11824;51.178;13.546;2024-01-30T12:18:35;101518.00;;;8.50
4421;BMP180;11824;51.178;13.546;2024-01-30T12:21:04;101521.00;;;8.50
4421;BMP180;11824;51.178;13.546;2024-01-30T12:23:33;101526.00;;;8.60
4421;BMP180;11824;51.178;13.546;2024-01-30T12:26:02;101518.00;;;8.60
4421;BMP180;11824;51.178;13.546;2024-01-30T12:28:34;101519.00;;;8.70
4421;BMP180;11824;51.178;13.546;2024-01-30T12:31:04;101511.00;;;8.80
4421;BMP180;11824;51.178;13.546;2024-01-30T12:33:36;101516.00;;;8.80
4421;BMP180;11824;51.178;13.546;2024-01-30T12:36:06;101514.00;;;8.80
4421;BMP180;11824;51.178;13.546;2024-01-30T12:38:35;101510.00;;;8.80
4421;BMP180;11824;51.178;13.546;2024-01-30T12:41:04;101511.00;;;8.80
4421;BMP180;11824;51.178;13.546;2024-01-30T12:43:35;101497.00;;;8.80
4421;BMP180;11824;51.178;13.546;2024-01-30T12:46:06;101498.00;;;8.80
4421;BMP180;11824;51.178;13.546;2024-01-30T12:48:36;101503.00;;;8.80
4421;BMP180;11824;51.178;13.546;2024-01-30T12:51:05;101499.00;;;8.70
4421;BMP180;11824;51.178;13.546;2024-01-30T12:53:34;101496.00;;;8.80
4421;BMP180;11824;51.178;13.546;2024-01-30T12:56:03;101501.00;;;8.70
4421;BMP180;11824;51.178;13.546;2024-01-30T12:58:32;101498.00;;;8.70
4421;BMP180;11824;51.178;13.546;2024-01-30T13:01:01;101502.00;;;8.70
4421;BMP180;11824;51.178;13.546;2024-01-30T13:03:30;101494.00;;;8.70
4421;BMP180;11824;51.178;13.546;2024-01-30T13:06:01;101499.00;;;8.70
4421;BMP180;11824;51.178;13.546;2024-01-30T13:08:30;101501.00;;;8.70
4421;BMP180;11824;51.178;13.546;2024-01-30T13:10:59;101493.00;;;8.70
4421;BMP180;11824;51.178;13.546;2024-01-30T13:13:27;101489.00;;;8.60
4421;BMP180;11824;51.178;13.546;2024-01-30T13:15:57;101488.00;;;8.60
4421;BMP180;11824;51.178;13.546;2024-01-30T13:18:26;101490.00;;;8.60
4421;BMP180;11824;51.178;13.546;2024-01-30T13:20:55;101484.00;;;8.60
4421;BMP180;11824;51.178;13.546;2024-01-30T13:23:26;101482.00;;;8.60
4421;BMP180;11824;51.178;13.546;2024-01-30T13:25:55;101477.00;;;8.60
4421;BMP180;11824;51.178;13.546;2024-01-30T13:28:26;101472.00;;;8.60
4421;BMP180;11824;51.178;13.546;2024-01-30T13:30:55;101464.00;;;8.60
4421;BMP180;11824;51.178;13.546;2024-01-30T13:33:24;101471.00;;;8.60
4421;BMP180;11824;51.178;13.546;2024-01-30T13:35:52;101458.00;;;8.60
4421;BMP180;11824;51.178;13.546;2024-01-30T13:38:21;101465.00;;;8.60
4421;BMP180;11824;51.178;13.546;2024-01-30T13:40:51;101466.00;;;8.50
4421;BMP180;11824;51.178;13.546;2024-01-30T13:43:20;101462.00;;;8.50
4421;BMP180;11824;51.178;13.546;2024-01-30T13:45:49;101465.00;;;8.50
4421;BMP180;11824;51.178;13.546;2024-01-30T13:48:18;101474.00;;;8.50
4421;BMP180;11824;51.178;13.546;2024-01-30T13:50:47;101464.00;;;8.50
4421;BMP180;11824;51.178;13.546;2024-01-30T13:53:16;101465.00;;;8.40
4421;BMP180;11824;51.178;13.546;2024-01-30T13:55:45;101466.00;;;8.40
4421;BMP180;11824;51.178;13.546;2024-01-30T13:58:15;101459.00;;;8.40
4421;BMP180;11824;51.178;13.546;2024-01-30T14:00:44;101468.00;;;8.30
4421;BMP180;11824;51.178;13.546;2024-01-30T14:03:13;101473.00;;;8.20
4421;BMP180;11824;51.178;13.546;2024-01-30T14:05:42;101473.00;;;8.20
4421;BMP180;11824;51.178;13.546;2024-01-30T14:08:11;101466.00;;;8.10
4421;BMP180;11824;51.178;13.546;2024-01-30T14:10:40;101473.00;;;8.00
4421;BMP180;11824;51.178;13.546;2024-01-30T14:13:09;101469.00;;;8.00
4421;BMP180;11824;51.178;13.546;2024-01-30T14:15:40;101457.00;;;8.00
4421;BMP180;11824;51.178;13.546;2024-01-30T14:18:09;101463.00;;;7.90
4421;BMP180;11824;51.178;13.546;2024-01-30T14:20:38;101459.00;;;7.90